sensor_id;sensor_type;location;lat;lon;timestamp;pressure;altitude;pressure_sealevel;temperature;humidity
45864;BME280;31579;52.354;16.974;2023-04-28T00:00:37;-145.8;;;-146.1;100.0
45864;BME280;31579;52.354;16.974;2023-04-28T00:01:42;-145.7;;;-146.1;100.0
45864;BME280;31579;52.354;16.974;2023-04-28T00:02:47;-146.3;;;-146.1;100.0
45864;BME280;31579;52.354;16.974;2023-04-28T00:03:50;-147.1;;;-146.1;100.0
45864;BME280;31579;52.354;16.974;2023-04-28T00:04:54;-147.9;;;-146.1;100.0
45864;BME280;31579;52.354;16.974;2023-04-28T00:05:58;-148.2;;;-146.1;100.0
45864;BME280;31579;52.354;16.974;2023-04-28T00:07:01;-149.6;;;-146.1;100.0
45864;BME280;31579;52.354;16.974;2023-04-28T00:08:06;-149.5;;;-146.1;100.0
45864;BME280;31579;52.354;16.974;2023-04-28T00:09:09;-149.5;;;-146.1;100.0
45864;BME280;31579;52.354;16.974;2023-04-28T00:10:14;-149.6;;;-146.1;100.0
45864;BME280;31579;52.354;16.974;2023-04-28T00:11:17;-149.5;;;-146.1;100.0
45864;BME280;31579;52.354;16.974;2023-04-28T00:12:21;-149.5;;;-146.1;100.0
45864;BME280;31579;52.354;16.974;2023-04-28T00:13:26;-149.5;;;-146.1;100.0
45864;BME280;31579;52.354;16.974;2023-04-28T00:14:29;-149.2;;;-146.1;100.0
45864;BME280;31579;52.354;16.974;2023-04-28T00:15:33;-149.2;;;-146.1;100.0
45864;BME280;31579;52.354;16.974;2023-04-28T00:16:37;-149.2;;;-146.1;100.0
45864;BME280;31579;52.354;16.974;2023-04-28T00:17:41;-148.9;;;-146.1;100.0
45864;BME280;31579;52.354;16.974;2023-04-28T00:18:45;-148.9;;;-146.1;100.0
45864;BME280;31579;52.354;16.974;2023-04-28T00:19:49;-148.7;;;-146.1;100.0
45864;BME280;31579;52.354;16.974;2023-04-28T00:20:54;-148.5;;;-146.1;100.0
45864;BME280;31579;52.354;16.974;2023-04-28T00:21:57;-148.6;;;-146.1;100.0
45864;BME280;31579;52.354;16.974;2023-04-28T00:23:02;-148.5;;;-146.1;100.0
45864;BME280;31579;52.354;16.974;2023-04-28T00:24:06;-148.6;;;-146.1;100.0
45864;BME280;31579;52.354;16.974;2023-04-28T00:25:09;-148.7;;;-146.1;100.0
45864;BME280;31579;52.354;16.974;2023-04-28T00:26:14;-148.7;;;-146.1;100.0
45864;BME280;31579;52.354;16.974;2023-04-28T00:27:17;-148.8;;;-146.1;100.0
45864;BME280;31579;52.354;16.974;2023-04-28T00:28:21;-148.7;;;-146.1;100.0
45864;BME280;31579;52.354;16.974;2023-04-28T00:29:28;-148.8;;;-146.1;100.0
45864;BME280;31579;52.354;16.974;2023-04-28T00:30:30;-148.7;;;-146.1;100.0
45864;BME280;31579;52.354;16.974;2023-04-28T00:31:34;-148.8;;;-146.1;100.0
45864;BME280;31579;52.354;16.974;2023-04-28T00:32:38;-148.9;;;-146.1;100.0
45864;BME280;31579;52.354;16.974;2023-04-28T00:33:43;-148.9;;;-146.1;100.0
45864;BME280;31579;52.354;16.974;2023-04-28T00:34:47;-149.1;;;-146.1;100.0
45864;BME280;31579;52.354;16.974;2023-04-28T00:35:57;-149.2;;;-146.1;100.0
45864;BME280;31579;52.354;16.974;2023-04-28T00:36:54;-149.2;;;-146.1;100.0
45864;BME280;31579;52.354;16.974;2023-04-28T00:37:58;-149.1;;;-146.1;100.0
45864;BME280;31579;52.354;16.974;2023-04-28T00:39:01;-148.5;;;-146.1;100.0
45864;BME280;31579;52.354;16.974;2023-04-28T00:40:06;-149.2;;;-146.1;100.0
45864;BME280;31579;52.354;16.974;2023-04-28T00:41:09;-149.1;;;-146.1;100.0
45864;BME280;31579;52.354;16.974;2023-04-28T00:42:14;-149.9;;;-146.1;100.0
45864;BME280;31579;52.354;16.974;2023-04-28T00:43:17;-149.6;;;-146.1;100.0
45864;BME280;31579;52.354;16.974;2023-04-28T00:44:22;-150.1;;;-146.1;100.0
45864;BME280;31579;52.354;16.974;2023-04-28T00:45:26;-150.1;;;-146.1;100.0
45864;BME280;31579;52.354;16.974;2023-04-28T00:46:30;-150.3;;;-146.1;100.0
45864;BME280;31579;52.354;16.974;2023-04-28T00:47:34;-150.6;;;-146.1;100.0
45864;BME280;31579;52.354;16.974;2023-04-28T00:48:37;-151.0;;;-146.1;100.0
45864;BME280;31579;52.354;16.974;2023-04-28T00:49:41;-151.0;;;-146.1;100.0
45864;BME280;31579;52.354;16.974;2023-04-28T00:50:46;-151.2;;;-146.1;100.0
45864;BME280;31579;52.354;16.974;2023-04-28T00:52:05;-151.0;;;-146.1;100.0
45864;BME280;31579;52.354;16.974;2023-04-28T00:53:09;-147.0;;;-146.1;100.0
45864;BME280;31579;52.354;16.974;2023-04-28T00:54:13;-147.3;;;-146.1;100.0
45864;BME280;31579;52.354;16.974;2023-04-28T00:55:17;-147.9;;;-146.1;100.0
45864;BME280;31579;52.354;16.974;2023-04-28T00:56:21;-148.4;;;-146.1;100.0
45864;BME280;31579;52.354;16.974;2023-04-28T00:57:25;-148.8;;;-146.1;100.0
45864;BME280;31579;52.354;16.974;2023-04-28T00:58:29;-148.8;;;-146.1;100.0
45864;BME280;31579;52.354;16.974;2023-04-28T00:59:33;-148.7;;;-146.1;100.0
45864;BME280;31579;52.354;16.974;2023-04-28T01:00:37;-148.3;;;-146.1;100.0
45864;BME280;31579;52.354;16.974;2023-04-28T01:02:46;-147.8;;;-146.1;100.0
45864;BME280;31579;52.354;16.974;2023-04-28T01:03:50;-147.1;;;-146.1;100.0
45864;BME280;31579;52.354;16.974;2023-04-28T01:04:55;-146.9;;;-146.1;100.0
45864;BME280;31579;52.354;16.974;2023-04-28T01:05:58;-146.2;;;-146.1;100.0
45864;BME280;31579;52.354;16.974;2023-04-28T01:07:00;-132.3;;;-146.1;100.0
45864;BME280;31579;52.354;16.974;2023-04-28T01:08:03;-142.5;;;-146.1;100.0
45864;BME280;31579;52.354;16.974;2023-04-28T01:09:07;-150.8;;;-146.1;100.0
45864;BME280;31579;52.354;16.974;2023-04-28T01:10:11;-150.5;;;-146.1;100.0
45864;BME280;31579;52.354;16.974;2023-04-28T01:11:15;-149.8;;;-146.1;100.0
45864;BME280;31579;52.354;16.974;2023-04-28T01:12:19;-149.0;;;-146.1;100.0
45864;BME280;31579;52.354;16.974;2023-04-28T01:13:23;-147.8;;;-146.1;100.0
45864;BME280;31579;52.354;16.974;2023-04-28T01:14:28;-146.8;;;-146.1;100.0
45864;BME280;31579;52.354;16.974;2023-04-28T01:15:32;-145.7;;;-146.1;100.0
45864;BME280;31579;52.354;16.974;2023-04-28T01:16:36;-144.9;;;-146.1;100.0
45864;BME280;31579;52.354;16.974;2023-04-28T01:17:41;-144.3;;;-146.1;100.0
45864;BME280;31579;52.354;16.974;2023-04-28T01:18:46;-143.8;;;-146.1;100.0
45864;BME280;31579;52.354;16.974;2023-04-28T01:19:50;-143.1;;;-146.1;100.0
45864;BME280;31579;52.354;16.974;2023-04-28T01:20:54;-142.3;;;-146.1;100.0
45864;BME280;31579;52.354;16.974;2023-04-28T01:21:58;-141.4;;;-146.1;100.0
45864;BME280;31579;52.354;16.974;2023-04-28T01:23:00;-119.6;;;-146.1;100.0
45864;BME280;31579;52.354;16.974;2023-04-28T01:24:04;-134.7;;;-146.1;100.0
45864;BME280;31579;52.354;16.974;2023-04-28T01:25:07;-148.1;;;-146.1;100.0
45864;BME280;31579;52.354;16.974;2023-04-28T01:26:11;-146.3;;;-146.1;100.0
45864;BME280;31579;52.354;16.974;2023-04-28T01:27:15;-145.1;;;-146.1;100.0
45864;BME280;31579;52.354;16.974;2023-04-28T01:28:19;-143.7;;;-146.1;100.0
45864;BME280;31579;52.354;16.974;2023-04-28T01:29:23;-142.4;;;-146.1;100.0
45864;BME280;31579;52.354;16.974;2023-04-28T01:30:28;-141.3;;;-146.1;100.0
45864;BME280;31579;52.354;16.974;2023-04-28T01:31:32;-140.6;;;-146.1;100.0
45864;BME280;31579;52.354;16.974;2023-04-28T01:32:37;-140.9;;;-146.1;100.0
45864;BME280;31579;52.354;16.974;2023-04-28T01:33:41;-140.4;;;-146.1;100.0
45864;BME280;31579;52.354;16.974;2023-04-28T01:35:00;-145.8;;;-146.1;100.0
45864;BME280;31579;52.354;16.974;2023-04-28T01:36:03;-98.9;;;-146.1;100.0
45864;BME280;31579;52.354;16.974;2023-04-28T01:37:07;-129.1;;;-146.1;100.0
45864;BME280;31579;52.354;16.974;2023-04-28T01:38:11;-130.3;;;-146.1;100.0
45864;BME280;31579;52.354;16.974;2023-04-28T01:39:15;-130.2;;;-146.1;100.0
45864;BME280;31579;52.354;16.974;2023-04-28T01:40:19;-129.8;;;-146.1;100.0
45864;BME280;31579;52.354;16.974;2023-04-28T01:41:23;-129.5;;;-146.1;100.0
45864;BME280;31579;52.354;16.974;2023-04-28T01:42:28;-128.7;;;-146.1;100.0
45864;BME280;31579;52.354;16.974;2023-04-28T01:43:32;-127.5;;;-146.1;100.0
45864;BME280;31579;52.354;16.974;2023-04-28T01:44:36;-126.3;;;-146.1;100.0
45864;BME280;31579;52.354;16.974;2023-04-28T01:45:40;-123.5;;;-146.1;100.0
45864;BME280;31579;52.354;16.974;2023-04-28T01:46:58;-127.1;;;-146.1;100.0
45864;BME280;31579;52.354;16.974;2023-04-28T01:48:00;-44.3;;;-146.1;100.0
45864;BME280;31579;52.354;16.974;2023-04-28T01:49:05;-116.0;;;-146.1;100.0
45864;BME280;31579;52.354;16.974;2023-04-28T01:50:09;-115.6;;;-146.1;100.0
45864;BME280;31579;52.354;16.974;2023-04-28T01:51:13;-113.6;;;-146.1;100.0
45864;BME280;31579;52.354;16.974;2023-04-28T01:52:17;-111.3;;;-146.1;100.0
45864;BME280;31579;52.354;16.974;2023-04-28T01:53:21;-109.2;;;-146.1;100.0
45864;BME280;31579;52.354;16.974;2023-04-28T01:54:25;-72.4;;;-146.1;100.0
45864;BME280;31579;52.354;16.974;2023-04-28T01:55:29;-112.2;;;-146.1;100.0
45864;BME280;31579;52.354;16.974;2023-04-28T01:56:33;-109.2;;;-146.1;100.0
45864;BME280;31579;52.354;16.974;2023-04-28T01:57:37;-105.0;;;-146.1;100.0
45864;BME280;31579;52.354;16.974;2023-04-28T01:58:41;-101.4;;;-146.1;100.0
45864;BME280;31579;52.354;16.974;2023-04-28T01:59:45;-98.4;;;-146.1;100.0
45864;BME280;31579;52.354;16.974;2023-04-28T02:00:49;-95.6;;;-146.1;100.0
45864;BME280;31579;52.354;16.974;2023-04-28T02:01:54;-95.5;;;-146.1;100.0
45864;BME280;31579;52.354;16.974;2023-04-28T02:02:58;-88.8;;;-146.1;100.0
45864;BME280;31579;52.354;16.974;2023-04-28T02:04:00;-16.3;;;-146.1;100.0
45864;BME280;31579;52.354;16.974;2023-04-28T02:05:03;-60.8;;;-146.1;100.0
45864;BME280;31579;52.354;16.974;2023-04-28T02:06:07;-102.2;;;-146.1;100.0
45864;BME280;31579;52.354;16.974;2023-04-28T02:07:11;-93.3;;;-146.1;100.0
45864;BME280;31579;52.354;16.974;2023-04-28T02:08:15;-86.3;;;-146.1;100.0
45864;BME280;31579;52.354;16.974;2023-04-28T02:09:19;-80.7;;;-146.1;100.0
45864;BME280;31579;52.354;16.974;2023-04-28T02:10:22;-33.2;;;-146.1;100.0
45864;BME280;31579;52.354;16.974;2023-04-28T02:11:26;-80.8;;;-146.1;100.0
45864;BME280;31579;52.354;16.974;2023-04-28T02:12:30;-74.6;;;-146.1;100.0
45864;BME280;31579;52.354;16.974;2023-04-28T02:13:34;-68.7;;;-146.1;100.0
45864;BME280;31579;52.354;16.974;2023-04-28T02:14:38;-64.1;;;-146.1;100.0
45864;BME280;31579;52.354;16.974;2023-04-28T02:15:41;-17.0;;;-146.1;100.0
45864;BME280;31579;52.354;16.974;2023-04-28T02:16:45;-65.4;;;-146.1;100.0
45864;BME280;31579;52.354;16.974;2023-04-28T02:17:49;-59.5;;;-146.1;100.0
45864;BME280;31579;52.354;16.974;2023-04-28T02:18:56;-139.4;;;-146.1;100.0
45864;BME280;31579;52.354;16.974;2023-04-28T02:20:00;-21.2;;;-146.1;100.0
45864;BME280;31579;52.354;16.974;2023-04-28T02:22:09;-27.7;;;-146.1;100.0
45864;BME280;31579;52.354;16.974;2023-04-28T02:23:13;-28.2;;;-146.1;100.0
45864;BME280;31579;52.354;16.974;2023-04-28T02:24:17;-28.7;;;-146.1;100.0
45864;BME280;31579;52.354;16.974;2023-04-28T02:25:21;-27.1;;;-146.1;100.0
45864;BME280;31579;52.354;16.974;2023-04-28T02:26:25;-25.3;;;-146.1;100.0
45864;BME280;31579;52.354;16.974;2023-04-28T02:27:29;-24.0;;;-146.1;100.0
45864;BME280;31579;52.354;16.974;2023-04-28T02:28:32;24.4;;;-146.1;100.0
45864;BME280;31579;52.354;16.974;2023-04-28T02:29:35;17.4;;;-146.1;100.0
45864;BME280;31579;52.354;16.974;2023-04-28T02:30:39;-32.9;;;-146.1;100.0
45864;BME280;31579;52.354;16.974;2023-04-28T02:31:42;20.1;;;-146.1;100.0
45864;BME280;31579;52.354;16.974;2023-04-28T02:32:46;-30.0;;;-146.1;100.0
45864;BME280;31579;52.354;16.974;2023-04-28T02:33:50;-22.3;;;-146.1;100.0
45864;BME280;31579;52.354;16.974;2023-04-28T02:34:54;-16.0;;;-146.1;100.0
45864;BME280;31579;52.354;16.974;2023-04-28T02:35:59;-11.0;;;-146.1;100.0
45864;BME280;31579;52.354;16.974;2023-04-28T02:37:05;61.1;;;-146.1;100.0
45864;BME280;31579;52.354;16.974;2023-04-28T02:38:09;-22.1;;;-146.1;100.0
45864;BME280;31579;52.354;16.974;2023-04-28T02:39:13;-13.0;;;-146.1;100.0
45864;BME280;31579;52.354;16.974;2023-04-28T02:40:17;-5.0;;;-146.1;100.0
45864;BME280;31579;52.354;16.974;2023-04-28T02:41:21;1.3;;;-146.1;100.0
45864;BME280;31579;52.354;16.974;2023-04-28T02:42:26;5.2;;;-146.1;100.0
45864;BME280;31579;52.354;16.974;2023-04-28T02:43:31;8.9;;;-146.1;100.0
45864;BME280;31579;52.354;16.974;2023-04-28T02:44:34;12.8;;;-146.1;100.0
45864;BME280;31579;52.354;16.974;2023-04-28T02:45:38;15.7;;;-146.1;100.0
45864;BME280;31579;52.354;16.974;2023-04-28T02:46:42;18.4;;;-146.1;100.0
45864;BME280;31579;52.354;16.974;2023-04-28T02:47:46;20.7;;;-146.1;100.0
45864;BME280;31579;52.354;16.974;2023-04-28T02:48:50;21.9;;;-146.1;100.0
45864;BME280;31579;52.354;16.974;2023-04-28T02:49:54;23.5;;;-146.1;100.0
45864;BME280;31579;52.354;16.974;2023-04-28T02:50:58;25.4;;;-146.1;100.0
45864;BME280;31579;52.354;16.974;2023-04-28T02:52:00;107.3;;;-146.1;100.0
45864;BME280;31579;52.354;16.974;2023-04-28T02:53:03;89.7;;;-146.1;100.0
45864;BME280;31579;52.354;16.974;2023-04-28T02:54:07;-2.9;;;-146.1;100.0
45864;BME280;31579;52.354;16.974;2023-04-28T02:55:11;11.5;;;-146.1;100.0
45864;BME280;31579;52.354;16.974;2023-04-28T02:56:15;22.8;;;-146.1;100.0
45864;BME280;31579;52.354;16.974;2023-04-28T02:57:19;30.7;;;-146.1;100.0
45864;BME280;31579;52.354;16.974;2023-04-28T02:58:23;36.6;;;-146.1;100.0
45864;BME280;31579;52.354;16.974;2023-04-28T02:59:27;40.9;;;-146.1;100.0
45864;BME280;31579;52.354;16.974;2023-04-28T03:00:31;44.9;;;-146.1;100.0
45864;BME280;31579;52.354;16.974;2023-04-28T03:01:35;47.1;;;-146.1;100.0
45864;BME280;31579;52.354;16.974;2023-04-28T03:02:39;49.5;;;-146.1;100.0
45864;BME280;31579;52.354;16.974;2023-04-28T03:03:42;102.4;;;-146.1;100.0
45864;BME280;31579;52.354;16.974;2023-04-28T03:04:46;43.2;;;-146.1;100.0
45864;BME280;31579;52.354;16.974;2023-04-28T03:05:49;98.9;;;-146.1;100.0
45864;BME280;31579;52.354;16.974;2023-04-28T03:06:53;43.8;;;-146.1;100.0
45864;BME280;31579;52.354;16.974;2023-04-28T03:07:56;102.6;;;-146.1;100.0
45864;BME280;31579;52.354;16.974;2023-04-28T03:09:00;47.9;;;-146.1;100.0
45864;BME280;31579;52.354;16.974;2023-04-28T03:10:03;143.9;;;-146.1;100.0
45864;BME280;31579;52.354;16.974;2023-04-28T03:11:07;40.0;;;-146.1;100.0
45864;BME280;31579;52.354;16.974;2023-04-28T03:12:11;51.2;;;-146.1;100.0
45864;BME280;31579;52.354;16.974;2023-04-28T03:13:14;112.6;;;-146.1;100.0
45864;BME280;31579;52.354;16.974;2023-04-28T03:14:18;58.3;;;-146.1;100.0
45864;BME280;31579;52.354;16.974;2023-04-28T03:15:22;66.5;;;-146.1;100.0
45864;BME280;31579;52.354;16.974;2023-04-28T03:16:26;72.8;;;-146.1;100.0
45864;BME280;31579;52.354;16.974;2023-04-28T03:17:30;78.0;;;-146.1;100.0
45864;BME280;31579;52.354;16.974;2023-04-28T03:18:33;134.4;;;-146.1;100.0
45864;BME280;31579;52.354;16.974;2023-04-28T03:19:37;74.3;;;-146.1;100.0
45864;BME280;31579;52.354;16.974;2023-04-28T03:20:41;78.4;;;-146.1;100.0
45864;BME280;31579;52.354;16.974;2023-04-28T03:21:45;82.0;;;-146.1;100.0
45864;BME280;31579;52.354;16.974;2023-04-28T03:22:48;134.4;;;-146.1;100.0
45864;BME280;31579;52.354;16.974;2023-04-28T03:23:51;126.3;;;-146.1;100.0
45864;BME280;31579;52.354;16.974;2023-04-28T03:24:55;121.7;;;-146.1;100.0
45864;BME280;31579;52.354;16.974;2023-04-28T03:25:59;67.5;;;-146.1;100.0
45864;BME280;31579;52.354;16.974;2023-04-28T03:27:03;78.5;;;-146.1;100.0
45864;BME280;31579;52.354;16.974;2023-04-28T03:28:06;143.5;;;-146.1;100.0
45864;BME280;31579;52.354;16.974;2023-04-28T03:29:10;84.4;;;-146.1;100.0
45864;BME280;31579;52.354;16.974;2023-04-28T03:30:14;91.7;;;-146.1;100.0
45864;BME280;31579;52.354;16.974;2023-04-28T03:31:18;95.9;;;-146.1;100.0
45864;BME280;31579;52.354;16.974;2023-04-28T03:32:21;157.6;;;-146.1;100.0
45864;BME280;31579;52.354;16.974;2023-04-28T03:33:24;152.2;;;-146.1;100.0
45864;BME280;31579;52.354;16.974;2023-04-28T03:34:27;150.0;;;-146.1;100.0
45864;BME280;31579;52.354;16.974;2023-04-28T03:35:30;151.1;;;-146.1;100.0
45864;BME280;31579;52.354;16.974;2023-04-28T03:36:34;95.8;;;-146.1;100.0
45864;BME280;31579;52.354;16.974;2023-04-28T03:37:37;164.6;;;-146.1;100.0
45864;BME280;31579;52.354;16.974;2023-04-28T03:38:42;106.4;;;-146.1;100.0
45864;BME280;31579;52.354;16.974;2023-04-28T03:39:45;115.9;;;-146.1;100.0
45864;BME280;31579;52.354;16.974;2023-04-28T03:40:49;123.2;;;-146.1;100.0
45864;BME280;31579;52.354;16.974;2023-04-28T03:41:52;187.1;;;-146.1;100.0
45864;BME280;31579;52.354;16.974;2023-04-28T03:42:57;122.8;;;-146.1;100.0
45864;BME280;31579;52.354;16.974;2023-04-28T03:43:59;189.2;;;-146.1;100.0
45864;BME280;31579;52.354;16.974;2023-04-28T03:45:01;232.7;;;-146.1;100.0
45864;BME280;31579;52.354;16.974;2023-04-28T03:46:03;223.8;;;-146.1;100.0
45864;BME280;31579;52.354;16.974;2023-04-28T03:47:07;104.2;;;-146.1;100.0
45864;BME280;31579;52.354;16.974;2023-04-28T03:48:11;125.2;;;-146.1;100.0
45864;BME280;31579;52.354;16.974;2023-04-28T03:49:15;139.0;;;-146.1;100.0
45864;BME280;31579;52.354;16.974;2023-04-28T03:50:20;150.3;;;-146.1;100.0
45864;BME280;31579;52.354;16.974;2023-04-28T03:51:23;219.7;;;-146.1;100.0
45864;BME280;31579;52.354;16.974;2023-04-28T03:52:27;155.1;;;-146.1;100.0
45864;BME280;31579;52.354;16.974;2023-04-28T03:53:30;225.0;;;-146.1;100.0
45864;BME280;31579;52.354;16.974;2023-04-28T03:54:34;220.1;;;-146.1;100.0
45864;BME280;31579;52.354;16.974;2023-04-28T03:55:38;160.0;;;-146.1;100.0
45864;BME280;31579;52.354;16.974;2023-04-28T03:56:43;169.9;;;-146.1;100.0
45864;BME280;31579;52.354;16.974;2023-04-28T03:57:46;177.0;;;-146.1;100.0
45864;BME280;31579;52.354;16.974;2023-04-28T03:58:50;183.6;;;-146.1;100.0
45864;BME280;31579;52.354;16.974;2023-04-28T03:59:54;187.5;;;-146.1;100.0
45864;BME280;31579;52.354;16.974;2023-04-28T04:00:58;188.6;;;-146.1;100.0
45864;BME280;31579;52.354;16.974;2023-04-28T04:02:00;300.1;;;-146.1;100.0
45864;BME280;31579;52.354;16.974;2023-04-28T04:03:03;282.7;;;-146.1;100.0
45864;BME280;31579;52.354;16.974;2023-04-28T04:04:07;155.6;;;-146.1;100.0
45864;BME280;31579;52.354;16.974;2023-04-28T04:05:11;176.8;;;-146.1;100.0
45864;BME280;31579;52.354;16.974;2023-04-28T04:06:14;254.6;;;-146.1;100.0
45864;BME280;31579;52.354;16.974;2023-04-28T04:07:18;193.1;;;-146.1;100.0
45864;BME280;31579;52.354;16.974;2023-04-28T04:08:22;205.4;;;-146.1;100.0
45864;BME280;31579;52.354;16.974;2023-04-28T04:09:26;274.4;;;-146.1;100.0
45864;BME280;31579;52.354;16.974;2023-04-28T04:10:30;206.7;;;-146.1;100.0
45864;BME280;31579;52.354;16.974;2023-04-28T04:11:34;216.8;;;-146.1;100.0
45864;BME280;31579;52.354;16.974;2023-04-28T04:12:37;287.8;;;-146.1;100.0
45864;BME280;31579;52.354;16.974;2023-04-28T04:13:41;220.7;;;-146.1;100.0
45864;BME280;31579;52.354;16.974;2023-04-28T04:14:45;227.8;;;-146.1;100.0
45864;BME280;31579;52.354;16.974;2023-04-28T04:15:49;233.1;;;-146.1;100.0
45864;BME280;31579;52.354;16.974;2023-04-28T04:16:53;236.9;;;-146.1;100.0
45864;BME280;31579;52.354;16.974;2023-04-28T04:17:57;241.4;;;-146.1;100.0
45864;BME280;31579;52.354;16.974;2023-04-28T04:19:04;115.6;;;-146.1;100.0
45864;BME280;31579;52.354;16.974;2023-04-28T04:20:07;335.8;;;-146.1;100.0
45864;BME280;31579;52.354;16.974;2023-04-28T04:21:11;250.9;;;-146.1;100.0
45864;BME280;31579;52.354;16.974;2023-04-28T04:22:15;249.1;;;-146.1;100.0
45864;BME280;31579;52.354;16.974;2023-04-28T04:23:19;246.4;;;-146.1;100.0
45864;BME280;31579;52.354;16.974;2023-04-28T04:24:23;245.0;;;-146.1;100.0
45864;BME280;31579;52.354;16.974;2023-04-28T04:25:27;246.4;;;-146.1;100.0
45864;BME280;31579;52.354;16.974;2023-04-28T04:26:31;252.4;;;-146.1;100.0
45864;BME280;31579;52.354;16.974;2023-04-28T04:27:35;256.5;;;-146.1;100.0
45864;BME280;31579;52.354;16.974;2023-04-28T04:28:39;258.8;;;-146.1;100.0
45864;BME280;31579;52.354;16.974;2023-04-28T04:29:43;265.6;;;-146.1;100.0
45864;BME280;31579;52.354;16.974;2023-04-28T04:30:47;272.3;;;-146.1;100.0
45864;BME280;31579;52.354;16.974;2023-04-28T04:31:51;281.2;;;-146.1;100.0
45864;BME280;31579;52.354;16.974;2023-04-28T04:32:55;292.1;;;-146.1;100.0
45864;BME280;31579;52.354;16.974;2023-04-28T04:33:59;304.1;;;-146.1;100.0
45864;BME280;31579;52.354;16.974;2023-04-28T04:35:01;427.2;;;-146.1;100.0
45864;BME280;31579;52.354;16.974;2023-04-28T04:36:04;426.1;;;-146.1;100.0
45864;BME280;31579;52.354;16.974;2023-04-28T04:37:07;388.9;;;-146.1;100.0
45864;BME280;31579;52.354;16.974;2023-04-28T04:38:11;349.1;;;-146.1;100.0
45864;BME280;31579;52.354;16.974;2023-04-28T04:39:14;376.8;;;-146.1;100.0
45864;BME280;31579;52.354;16.974;2023-04-28T04:40:19;403.0;;;-146.1;100.0
45864;BME280;31579;52.354;16.974;2023-04-28T04:41:25;431.8;;;-146.1;100.0
45864;BME280;31579;52.354;16.974;2023-04-28T04:42:27;454.7;;;-146.1;100.0
45864;BME280;31579;52.354;16.974;2023-04-28T04:43:31;472.4;;;-146.1;100.0
45864;BME280;31579;52.354;16.974;2023-04-28T04:44:35;498.6;;;-146.1;100.0
45864;BME280;31579;52.354;16.974;2023-04-28T04:45:39;548.1;;;-146.1;100.0
45864;BME280;31579;52.354;16.974;2023-04-28T04:46:44;591.8;;;-146.1;100.0
45864;BME280;31579;52.354;16.974;2023-04-28T04:47:47;627.5;;;-146.1;100.0
45864;BME280;31579;52.354;16.974;2023-04-28T04:48:51;653.4;;;-146.1;100.0
45864;BME280;31579;52.354;16.974;2023-04-28T04:49:56;637.4;;;-146.1;100.0
45864;BME280;31579;52.354;16.974;2023-04-28T04:50:59;615.6;;;-146.1;100.0
45864;BME280;31579;52.354;16.974;2023-04-28T04:52:03;567.1;;;-146.1;100.0
45864;BME280;31579;52.354;16.974;2023-04-28T04:53:07;555.9;;;-146.1;100.0
45864;BME280;31579;52.354;16.974;2023-04-28T04:54:11;518.0;;;-146.1;100.0
45864;BME280;31579;52.354;16.974;2023-04-28T04:55:15;516.3;;;-146.1;100.0
45864;BME280;31579;52.354;16.974;2023-04-28T04:56:19;522.5;;;-146.1;100.0
45864;BME280;31579;52.354;16.974;2023-04-28T04:57:23;525.3;;;-146.1;100.0
45864;BME280;31579;52.354;16.974;2023-04-28T04:58:27;525.2;;;-146.1;100.0
45864;BME280;31579;52.354;16.974;2023-04-28T04:59:31;499.6;;;-146.1;100.0
45864;BME280;31579;52.354;16.974;2023-04-28T05:00:35;494.3;;;-146.1;100.0
45864;BME280;31579;52.354;16.974;2023-04-28T05:01:39;484.3;;;-146.1;100.0
45864;BME280;31579;52.354;16.974;2023-04-28T05:02:43;448.3;;;-146.1;100.0
45864;BME280;31579;52.354;16.974;2023-04-28T05:03:47;448.4;;;-146.1;100.0
45864;BME280;31579;52.354;16.974;2023-04-28T05:04:51;425.6;;;-146.1;100.0
45864;BME280;31579;52.354;16.974;2023-04-28T05:05:55;405.7;;;-146.1;100.0
45864;BME280;31579;52.354;16.974;2023-04-28T05:07:00;451.0;;;-146.1;100.0
45864;BME280;31579;52.354;16.974;2023-04-28T05:08:05;499.6;;;-146.1;100.0
45864;BME280;31579;52.354;16.974;2023-04-28T05:09:09;579.9;;;-146.1;100.0
45864;BME280;31579;52.354;16.974;2023-04-28T05:10:13;684.5;;;-146.1;100.0
45864;BME280;31579;52.354;16.974;2023-04-28T05:11:17;726.5;;;-146.1;100.0
45864;BME280;31579;52.354;16.974;2023-04-28T05:12:21;706.9;;;-146.1;100.0
45864;BME280;31579;52.354;16.974;2023-04-28T05:13:26;802.6;;;-146.1;100.0
45864;BME280;31579;52.354;16.974;2023-04-28T05:14:30;825.3;;;-146.1;100.0
45864;BME280;31579;52.354;16.974;2023-04-28T05:15:34;866.6;;;-146.1;100.0
45864;BME280;31579;52.354;16.974;2023-04-28T05:16:40;916.4;;;-146.1;100.0
45864;BME280;31579;52.354;16.974;2023-04-28T05:17:43;867.8;;;-146.1;100.0
45864;BME280;31579;52.354;16.974;2023-04-28T05:18:47;1072.1;;;-146.1;100.0
45864;BME280;31579;52.354;16.974;2023-04-28T05:19:51;1164.7;;;-146.1;100.0
45864;BME280;31579;52.354;16.974;2023-04-28T05:20:55;1147.9;;;-146.1;100.0
45864;BME280;31579;52.354;16.974;2023-04-28T05:21:59;1165.4;;;-146.1;100.0
45864;BME280;31579;52.354;16.974;2023-04-28T05:23:04;1164.9;;;-146.1;100.0
45864;BME280;31579;52.354;16.974;2023-04-28T05:24:07;1165.0;;;-146.1;100.0
45864;BME280;31579;52.354;16.974;2023-04-28T05:25:11;1163.3;;;-146.1;100.0
45864;BME280;31579;52.354;16.974;2023-04-28T05:26:15;1166.0;;;-146.1;100.0
45864;BME280;31579;52.354;16.974;2023-04-28T05:27:19;1163.2;;;-146.1;100.0
45864;BME280;31579;52.354;16.974;2023-04-28T05:28:23;1160.9;;;-146.1;100.0
45864;BME280;31579;52.354;16.974;2023-04-28T05:29:27;1159.1;;;-146.1;100.0
45864;BME280;31579;52.354;16.974;2023-04-28T05:30:32;1161.1;;;-146.1;100.0
45864;BME280;31579;52.354;16.974;2023-04-28T05:31:35;1157.4;;;-146.1;100.0
45864;BME280;31579;52.354;16.974;2023-04-28T05:32:39;1154.5;;;-146.1;100.0
45864;BME280;31579;52.354;16.974;2023-04-28T05:33:43;1147.5;;;-146.1;100.0
45864;BME280;31579;52.354;16.974;2023-04-28T05:34:47;1146.3;;;-146.1;100.0
45864;BME280;31579;52.354;16.974;2023-04-28T05:35:51;1142.4;;;-146.1;100.0
45864;BME280;31579;52.354;16.974;2023-04-28T05:36:55;1139.4;;;-146.1;100.0
45864;BME280;31579;52.354;16.974;2023-04-28T05:37:59;1139.5;;;-146.1;100.0
45864;BME280;31579;52.354;16.974;2023-04-28T05:39:03;1133.6;;;-146.1;100.0
45864;BME280;31579;52.354;16.974;2023-04-28T05:40:08;1130.2;;;-146.1;100.0
45864;BME280;31579;52.354;16.974;2023-04-28T05:41:11;1133.7;;;-146.1;100.0
45864;BME280;31579;52.354;16.974;2023-04-28T05:42:15;1130.0;;;-146.1;100.0
45864;BME280;31579;52.354;16.974;2023-04-28T05:43:20;1124.6;;;-146.1;100.0
45864;BME280;31579;52.354;16.974;2023-04-28T05:44:24;1115.5;;;-146.1;100.0